createdAt,value
2023-01-11T00:00:26.813Z,100576.81
2023-01-11T00:02:57.480Z,100577.47
2023-01-11T00:05:24.311Z,100577.63
2023-01-11T00:07:51.266Z,100581.75
2023-01-11T00:10:18.080Z,100587.63
2023-01-11T00:12:44.751Z,100572.41
2023-01-11T00:15:11.551Z,100570.59
2023-01-11T00:17:38.053Z,100570.78
2023-01-11T00:20:04.928Z,100576.81
2023-01-11T00:22:31.267Z,100566.19
2023-01-11T00:24:57.689Z,100568.31
2023-01-11T00:27:24.056Z,100563.22
2023-01-11T00:29:50.462Z,100568.28
2023-01-11T00:32:16.838Z,100559.25
2023-01-11T00:34:43.194Z,100556.97
2023-01-11T00:37:10.658Z,100556.13
2023-01-11T00:39:37.049Z,100559.41
2023-01-11T00:42:21.899Z,100558.09
2023-01-11T00:45:06.601Z,100549.59
2023-01-11T00:47:51.432Z,100542.38
2023-01-11T00:50:17.914Z,100549.41
2023-01-11T00:52:44.283Z,100545.78
2023-01-11T00:55:10.721Z,100543.16
2023-01-11T00:57:37.063Z,100550.69
2023-01-11T01:00:05.281Z,100536.75
2023-01-11T01:02:32.374Z,100538.56
2023-01-11T01:04:58.893Z,100539.34
2023-01-11T01:07:25.302Z,100539.19
2023-01-11T01:09:51.718Z,100533.81
2023-01-11T01:12:36.808Z,100536.25
2023-01-11T01:15:03.886Z,100539.06
2023-01-11T01:17:30.310Z,100540.84
2023-01-11T01:19:56.634Z,100534.75
2023-01-11T01:22:23.046Z,100532.81
2023-01-11T01:24:49.446Z,100538.34
2023-01-11T01:27:17.781Z,100533.28
2023-01-11T01:29:44.357Z,100539.34
2023-01-11T01:32:10.749Z,100525.44
2023-01-11T01:34:37.625Z,100524.09
2023-01-11T01:37:05.652Z,100522.97
2023-01-11T01:39:32.172Z,100513.78
2023-01-11T01:41:58.710Z,100508.53
2023-01-11T01:44:54.985Z,100515.41
2023-01-11T01:47:29.858Z,100499.84
2023-01-11T01:49:58.869Z,100502.59
2023-01-11T01:52:29.138Z,100501.63
2023-01-11T01:54:59.657Z,100506.88
2023-01-11T01:57:31.355Z,100503.28
2023-01-11T02:00:01.416Z,100496.97
2023-01-11T02:02:28.547Z,100490.44
2023-01-11T02:04:57.347Z,100496.69
2023-01-11T02:07:31.737Z,100494.09
2023-01-11T02:10:10.281Z,100494.72
2023-01-11T02:12:41.742Z,100490.44
2023-01-11T02:15:11.121Z,100498.97
2023-01-11T02:17:37.534Z,100492.78
2023-01-11T02:20:21.247Z,100487.56
2023-01-11T02:23:09.510Z,100489.38
2023-01-11T02:25:51.870Z,100486.59
2023-01-11T02:28:47.656Z,100479.94
2023-01-11T02:31:27.570Z,100477.47
2023-01-11T02:34:04.651Z,100473.88
2023-01-11T02:36:49.403Z,100465.56
2023-01-11T02:39:30.778Z,100456.34
2023-01-11T02:42:37.914Z,100462.25
2023-01-11T02:45:12.889Z,100455.53
2023-01-11T02:47:57.684Z,100448.00
2023-01-11T02:50:43.786Z,100460.72
2023-01-11T02:53:21.901Z,100449.47
2023-01-11T02:55:54.372Z,100436.84
2023-01-11T02:58:23.017Z,100443.22
2023-01-11T03:00:50.528Z,100439.09
2023-01-11T03:03:21.957Z,100426.81
2023-01-11T03:06:11.404Z,100425.97
2023-01-11T03:08:59.410Z,100422.84
2023-01-11T03:12:18.549Z,100416.44
2023-01-11T03:15:22.130Z,100422.13
2023-01-11T03:18:33.588Z,100414.28
2023-01-11T03:21:11.870Z,100419.34
2023-01-11T03:23:58.213Z,100418.16
2023-01-11T03:26:46.234Z,100415.50
2023-01-11T03:29:26.696Z,100421.22
2023-01-11T03:32:05.620Z,100422.84
2023-01-11T03:35:02.619Z,100428.25
2023-01-11T03:37:37.817Z,100426.28
2023-01-11T03:40:16.781Z,100426.56
2023-01-11T03:43:05.805Z,100418.88
2023-01-11T03:45:37.270Z,100421.50
2023-01-11T03:48:09.178Z,100429.84
2023-01-11T03:50:35.604Z,100416.25
2023-01-11T03:53:05.351Z,100425.75
2023-01-11T03:55:37.668Z,100423.31
2023-01-11T03:58:04.607Z,100424.28
2023-01-11T04:00:31.801Z,100422.16
2023-01-11T04:03:00.353Z,100416.38
2023-01-11T04:05:26.829Z,100413.91
2023-01-11T04:07:54.384Z,100412.22
2023-01-11T04:10:20.717Z,100405.34
2023-01-11T04:12:48.249Z,100392.69
2023-01-11T04:15:16.215Z,100401.72
2023-01-11T04:17:43.010Z,100399.53
2023-01-11T04:20:10.331Z,100402.53
2023-01-11T04:22:36.757Z,100396.13
2023-01-11T04:25:03.840Z,100399.53
2023-01-11T04:27:30.309Z,100389.88
2023-01-11T04:29:56.753Z,100389.84
2023-01-11T04:32:23.152Z,100394.63
2023-01-11T04:34:50.536Z,100389.38
2023-01-11T04:37:16.994Z,100382.97
2023-01-11T04:39:43.327Z,100383.06
2023-01-11T04:42:21.229Z,100381.41
2023-01-11T04:44:49.701Z,100381.25
2023-01-11T04:47:17.293Z,100385.97
2023-01-11T04:49:44.148Z,100378.25
2023-01-11T04:52:12.101Z,100378.44
2023-01-11T04:54:38.874Z,100376.97
2023-01-11T04:57:05.781Z,100378.63
2023-01-11T04:59:32.238Z,100376.63
2023-01-11T05:01:58.692Z,100376.63
2023-01-11T05:04:25.069Z,100382.81
2023-01-11T05:06:51.714Z,100382.44
2023-01-11T05:09:19.106Z,100377.66
2023-01-11T05:11:45.769Z,100376.84
2023-01-11T05:14:14.523Z,100377.75
2023-01-11T05:16:40.921Z,100373.78
2023-01-11T05:19:09.274Z,100372.31
2023-01-11T05:21:39.209Z,100372.75
2023-01-11T05:24:08.417Z,100374.13
2023-01-11T05:26:37.429Z,100372.31
2023-01-11T05:29:06.319Z,100384.28
2023-01-11T05:31:35.351Z,100378.19
2023-01-11T05:34:01.973Z,100377.66
2023-01-11T05:36:29.136Z,100372.03
2023-01-11T05:38:56.903Z,100386.44
2023-01-11T05:41:25.672Z,100379.84
2023-01-11T05:44:12.017Z,100377.22
2023-01-11T05:46:39.754Z,100372.94
2023-01-11T05:49:07.218Z,100371.97
2023-01-11T05:51:34.486Z,100384.91
2023-01-11T05:54:02.500Z,100368.94
2023-01-11T05:56:29.539Z,100374.84
2023-01-11T05:58:55.948Z,100383.53
2023-01-11T06:01:24.339Z,100378.47
2023-01-11T06:03:51.358Z,100376.91
2023-01-11T06:06:20.101Z,100373.50
2023-01-11T06:08:46.447Z,100364.25
2023-01-11T06:11:12.987Z,100375.56
2023-01-11T06:13:39.363Z,100370.50
2023-01-11T06:16:18.157Z,100366.34
2023-01-11T06:18:46.996Z,100371.41
2023-01-11T06:21:14.408Z,100365.31
2023-01-11T06:23:43.317Z,100378.47
2023-01-11T06:26:13.240Z,100364.16
2023-01-11T06:28:40.448Z,100366.41
2023-01-11T06:31:07.566Z,100362.78
2023-01-11T06:33:34.293Z,100367.03
2023-01-11T06:36:04.542Z,100374.94
2023-01-11T06:38:30.990Z,100373.09
2023-01-11T06:41:02.420Z,100367.84
2023-01-11T06:43:30.194Z,100370.31
2023-01-11T06:45:56.966Z,100367.13
2023-01-11T06:48:24.508Z,100378.25
2023-01-11T06:50:53.512Z,100373.00
2023-01-11T06:53:20.863Z,100369.56
2023-01-11T06:55:55.012Z,100374.44
2023-01-11T06:58:23.758Z,100375.44
2023-01-11T07:00:51.704Z,100380.34
2023-01-11T07:03:20.376Z,100381.34
2023-01-11T07:05:46.879Z,100380.16
2023-01-11T07:08:13.293Z,100385.59
2023-01-11T07:10:39.742Z,100402.97
2023-01-11T07:13:06.163Z,100411.06
2023-01-11T07:15:32.759Z,100409.88
2023-01-11T07:18:00.185Z,100427.06
2023-01-11T07:20:27.921Z,100425.53
2023-01-11T07:22:58.219Z,100426.81
2023-01-11T07:25:25.751Z,100426.63
2023-01-11T07:28:03.315Z,100440.03
2023-01-11T07:30:33.431Z,100437.84
2023-01-11T07:33:01.466Z,100451.25
2023-01-11T07:35:29.113Z,100453.34
2023-01-11T07:37:56.019Z,100461.94
2023-01-11T07:40:22.660Z,100457.19
2023-01-11T07:43:09.725Z,100455.75
2023-01-11T07:45:45.429Z,100450.44
2023-01-11T07:48:12.635Z,100443.53
2023-01-11T07:50:40.670Z,100452.53
2023-01-11T07:53:09.203Z,100443.44
2023-01-11T07:55:36.023Z,100433.56
2023-01-11T07:58:03.092Z,100432.72
2023-01-11T08:00:29.825Z,100429.28
2023-01-11T08:02:56.329Z,100443.25
2023-01-11T08:05:24.709Z,100456.84
2023-01-11T08:07:51.229Z,100461.28
2023-01-11T08:10:17.700Z,100470.00
2023-01-11T08:13:05.131Z,100460.50
2023-01-11T08:15:33.674Z,100465.91
2023-01-11T08:18:02.189Z,100469.75
2023-01-11T08:20:28.967Z,100484.34
2023-01-11T08:22:56.291Z,100480.09
2023-01-11T08:25:23.030Z,100476.09
2023-01-11T08:27:49.408Z,100478.34
2023-01-11T08:30:16.200Z,100468.81
2023-01-11T08:32:42.566Z,100483.00
2023-01-11T08:35:09.234Z,100489.44
2023-01-11T08:37:35.705Z,100487.16
2023-01-11T08:40:02.373Z,100519.75
2023-01-11T08:42:28.770Z,100530.28
2023-01-11T08:44:55.460Z,100537.16
2023-01-11T08:47:22.373Z,100530.00
2023-01-11T08:49:48.803Z,100531.09
2023-01-11T08:52:16.362Z,100535.66
2023-01-11T08:54:42.783Z,100530.13
2023-01-11T08:57:10.209Z,100533.78
2023-01-11T08:59:36.596Z,100538.00
2023-01-11T09:02:06.999Z,100544.91
2023-01-11T09:04:34.031Z,100559.25
2023-01-11T09:07:01.418Z,100560.69
2023-01-11T09:09:27.992Z,100547.75
2023-01-11T09:11:55.190Z,100555.63
2023-01-11T09:14:23.089Z,100579.31
2023-01-11T09:16:50.795Z,100585.72
2023-01-11T09:19:17.233Z,100578.81
2023-01-11T09:21:45.562Z,100585.91
2023-01-11T09:24:12.514Z,100584.91
2023-01-11T09:26:41.366Z,100596.41
2023-01-11T09:29:08.297Z,100597.44
2023-01-11T09:31:34.757Z,100598.06
2023-01-11T09:34:01.417Z,100604.16
2023-01-11T09:36:28.921Z,100607.75
2023-01-11T09:38:57.770Z,100602.50
2023-01-11T09:41:27.914Z,100614.81
2023-01-11T09:44:10.219Z,100611.22
2023-01-11T09:46:42.258Z,100605.94
2023-01-11T09:49:20.058Z,100624.56
2023-01-11T09:51:47.775Z,100627.34
2023-01-11T09:54:20.798Z,100638.69
2023-01-11T09:56:54.640Z,100632.25
2023-01-11T09:59:48.525Z,100641.13
2023-01-11T10:02:41.863Z,100641.13
2023-01-11T10:05:56.130Z,100645.41
2023-01-11T10:18:30.101Z,100642.78
2023-01-11T10:18:31.358Z,100657.91
2023-01-11T10:20:47.520Z,100659.38
2023-01-11T10:23:17.220Z,100658.75
2023-01-11T10:25:51.690Z,100658.09
2023-01-11T10:28:46.900Z,100658.78
2023-01-11T10:31:30.311Z,100666.53
2023-01-11T10:34:18.530Z,100668.00
2023-01-11T10:37:23.514Z,100685.63
2023-01-11T10:40:08.105Z,100688.72
2023-01-11T10:42:44.930Z,100692.63
2023-01-11T10:45:28.013Z,100697.56
2023-01-11T10:48:05.665Z,100694.94
2023-01-11T10:50:41.685Z,100689.47
2023-01-11T10:53:17.684Z,100681.25
2023-01-11T10:55:57.596Z,100683.25
2023-01-11T10:58:39.279Z,100685.66
2023-01-11T11:01:22.644Z,100679.09
2023-01-11T11:04:13.861Z,100682.28
2023-01-11T11:07:01.690Z,100684.66
2023-01-11T11:09:38.474Z,100673.47
2023-01-11T11:12:32.683Z,100682.75
2023-01-11T11:15:18.797Z,100679.25
2023-01-11T11:17:53.937Z,100676.16
2023-01-11T11:20:28.528Z,100681.44
2023-01-11T11:22:56.688Z,100691.13
2023-01-11T11:25:29.646Z,100684.53
2023-01-11T11:28:08.152Z,100688.69
2023-01-11T11:30:38.241Z,100689.69
2023-01-11T11:33:24.405Z,100693.97
2023-01-11T11:36:08.836Z,100693.91
2023-01-11T11:38:41.119Z,100705.53
2023-01-11T11:41:11.942Z,100694.81
2023-01-11T11:43:43.635Z,100700.34
2023-01-11T11:46:20.254Z,100703.25
2023-01-11T11:49:17.923Z,100699.25
2023-01-11T11:51:46.965Z,100708.06
2023-01-11T11:54:22.784Z,100724.16
2023-01-11T11:56:49.550Z,100714.25
2023-01-11T11:59:19.369Z,100719.06
2023-01-11T12:01:49.495Z,100710.03
2023-01-11T12:04:19.595Z,100705.84
2023-01-11T12:07:05.137Z,100701.25
2023-01-11T12:09:33.551Z,100704.31
2023-01-11T12:12:00.762Z,100721.06
2023-01-11T12:14:32.626Z,100710.34
2023-01-11T12:16:59.315Z,100709.41
2023-01-11T12:19:36.601Z,100714.25
2023-01-11T12:22:20.989Z,100717.91
2023-01-11T12:25:07.219Z,100705.72
2023-01-11T12:27:39.266Z,100707.38
2023-01-11T12:30:11.322Z,100708.06
2023-01-11T12:32:47.637Z,100715.66
2023-01-11T12:35:21.967Z,100724.06
2023-01-11T12:38:24.563Z,100718.97
2023-01-11T12:40:59.960Z,100726.06
2023-01-11T12:43:41.476Z,100721.97
2023-01-11T12:46:17.970Z,100720.00
2023-01-11T12:48:56.704Z,100719.91
2023-01-11T12:51:32.209Z,100725.03
2023-01-11T12:54:10.310Z,100710.97
2023-01-11T12:56:49.956Z,100719.09
2023-01-11T12:59:37.351Z,100717.31
2023-01-11T13:02:25.274Z,100723.19
2023-01-11T13:05:08.718Z,100734.78
2023-01-11T13:08:08.365Z,100732.97
2023-01-11T13:10:40.323Z,100730.06
2023-01-11T13:13:15.895Z,100737.25
2023-01-11T13:15:57.287Z,100737.81
2023-01-11T13:18:35.511Z,100747.00
2023-01-11T13:21:17.344Z,100731.72
2023-01-11T13:23:54.867Z,100744.75
2023-01-11T13:26:29.912Z,100747.53
2023-01-11T13:29:03.108Z,100757.84
2023-01-11T13:31:32.056Z,100763.94
2023-01-11T13:34:14.927Z,100770.06
2023-01-11T13:36:45.754Z,100771.72
2023-01-11T13:39:42.526Z,100766.63
2023-01-11T13:42:20.335Z,100764.81
2023-01-11T13:44:55.609Z,100767.53
2023-01-11T13:47:39.708Z,100771.06
2023-01-11T13:50:24.921Z,100767.06
2023-01-11T13:52:57.801Z,100769.28
2023-01-11T13:55:39.424Z,100763.00
2023-01-11T13:58:15.326Z,100764.75
2023-01-11T14:00:53.986Z,100777.22
2023-01-11T14:03:43.536Z,100784.34
2023-01-11T14:06:44.874Z,100779.84
2023-01-11T14:09:27.248Z,100783.91
2023-01-11T14:12:55.221Z,100783.78
2023-01-11T14:15:21.690Z,100787.94
2023-01-11T14:17:50.944Z,100792.13
2023-01-11T14:20:35.048Z,100789.22
2023-01-11T14:23:12.053Z,100794.03
2023-01-11T14:25:53.922Z,100797.31
2023-01-11T14:28:48.684Z,100800.16
2023-01-11T14:31:29.894Z,100799.22
2023-01-11T14:34:04.045Z,100803.53
2023-01-11T14:37:04.494Z,100809.72
2023-01-11T14:39:49.183Z,100815.06
2023-01-11T14:42:35.528Z,100814.28
2023-01-11T14:45:44.065Z,100824.38
2023-01-11T14:48:17.414Z,100824.50
2023-01-11T14:50:58.040Z,100818.31
2023-01-11T14:53:31.074Z,100826.34
2023-01-11T14:55:57.450Z,100816.69
2023-01-11T14:58:32.467Z,100837.69
2023-01-11T15:00:58.900Z,100836.00
2023-01-11T15:03:41.903Z,100837.97
2023-01-11T15:06:18.768Z,100835.63
2023-01-11T15:08:54.998Z,100825.28
2023-01-11T15:11:37.942Z,100818.09
2023-01-11T15:14:23.764Z,100823.09
2023-01-11T15:17:12.139Z,100812.38
2023-01-11T15:19:42.047Z,100813.75
2023-01-11T15:22:23.031Z,100822.38
2023-01-11T15:24:57.156Z,100823.53
2023-01-11T15:27:27.255Z,100830.81
2023-01-11T15:29:56.231Z,100830.88
2023-01-11T15:32:29.451Z,100817.44
2023-01-11T15:35:17.084Z,100832.88
2023-01-11T15:38:07.206Z,100841.69
2023-01-11T15:40:40.059Z,100841.19
2023-01-11T15:43:44.601Z,100844.53
2023-01-11T15:46:35.720Z,100835.25
2023-01-11T15:49:37.801Z,100827.88
2023-01-11T15:52:22.402Z,100835.16
2023-01-11T15:55:26.450Z,100854.09
2023-01-11T15:57:55.726Z,100856.19
2023-01-11T16:00:29.931Z,100855.91
2023-01-11T16:03:24.307Z,100864.81
2023-01-11T16:06:21.046Z,100864.63
2023-01-11T16:09:05.394Z,100862.50
2023-01-11T16:11:47.952Z,100851.19
2023-01-11T16:14:29.150Z,100863.72
2023-01-11T16:16:56.437Z,100871.75
2023-01-11T16:19:26.178Z,100861.94
2023-01-11T16:21:56.831Z,100854.25
2023-01-11T16:24:26.873Z,100867.84
2023-01-11T16:26:56.882Z,100865.09
2023-01-11T16:29:25.756Z,100863.13
2023-01-11T16:32:18.235Z,100873.81
2023-01-11T16:34:47.066Z,100888.13
2023-01-11T16:37:49.503Z,100888.97
2023-01-11T16:40:21.050Z,100888.78
2023-01-11T16:43:20.826Z,100912.00
2023-01-11T16:45:50.023Z,100926.94
2023-01-11T16:48:28.491Z,100915.91
2023-01-11T16:51:09.693Z,100923.81
2023-01-11T16:53:40.981Z,100929.88
2023-01-11T16:56:14.227Z,100930.69
2023-01-11T16:58:40.749Z,100934.31
2023-01-11T17:01:08.997Z,100939.28
2023-01-11T17:03:38.386Z,100942.09
2023-01-11T17:06:07.806Z,100941.97
2023-01-11T17:08:42.726Z,100944.28
2023-01-11T17:11:45.295Z,100954.53
2023-01-11T17:14:36.515Z,100945.50
2023-01-11T17:17:05.931Z,100957.16
2023-01-11T17:19:36.727Z,100952.59
2023-01-11T17:22:12.897Z,100947.38
2023-01-11T17:24:47.001Z,100953.47
2023-01-11T17:27:24.431Z,100963.66
2023-01-11T17:29:54.806Z,100958.59
2023-01-11T17:32:28.493Z,100953.16
2023-01-11T17:34:55.440Z,100954.31
2023-01-11T17:37:22.218Z,100952.53
2023-01-11T17:39:53.203Z,100960.94
2023-01-11T17:42:38.540Z,100961.44
2023-01-11T17:45:20.997Z,100964.06
2023-01-11T17:47:52.183Z,100960.47
2023-01-11T17:50:38.401Z,100950.13
2023-01-11T17:53:16.858Z,100958.81
2023-01-11T17:56:29.661Z,100963.59
2023-01-11T17:59:16.307Z,100962.63
2023-01-11T18:01:48.921Z,100967.38
2023-01-11T18:04:19.207Z,100962.94
2023-01-11T18:06:48.412Z,100964.06
2023-01-11T18:09:29.684Z,100967.88
2023-01-11T18:12:14.531Z,100958.97
2023-01-11T18:14:49.108Z,100967.50
2023-01-11T18:17:37.098Z,100971.00
2023-01-11T18:20:29.226Z,100964.59
2023-01-11T18:23:07.686Z,100964.59
2023-01-11T18:25:35.156Z,100965.72
2023-01-11T18:28:25.929Z,100963.28
2023-01-11T18:30:54.267Z,100966.91
2023-01-11T18:33:24.266Z,100967.06
2023-01-11T18:35:59.856Z,100960.31
2023-01-11T18:38:29.631Z,100965.59
2023-01-11T18:40:58.405Z,100961.34
2023-01-11T18:43:28.244Z,100963.28
2023-01-11T18:45:55.726Z,100959.34
2023-01-11T18:48:22.856Z,100954.44
2023-01-11T18:50:51.837Z,100954.78
2023-01-11T18:53:18.620Z,100952.44
2023-01-11T18:55:45.966Z,100945.75
2023-01-11T18:58:12.441Z,100939.50
2023-01-11T19:00:40.912Z,100943.78
2023-01-11T19:03:10.354Z,100945.06
2023-01-11T19:05:36.778Z,100936.03
2023-01-11T19:08:03.212Z,100936.41
2023-01-11T19:10:29.597Z,100937.69
2023-01-11T19:12:57.510Z,100929.00
2023-01-11T19:15:24.444Z,100920.31
2023-01-11T19:17:50.891Z,100927.06
2023-01-11T19:20:17.403Z,100912.59
2023-01-11T19:22:43.843Z,100915.38
2023-01-11T19:25:10.390Z,100926.22
2023-01-11T19:27:37.431Z,100921.31
2023-01-11T19:30:05.427Z,100914.25
2023-01-11T19:32:31.836Z,100920.97
2023-01-11T19:34:58.354Z,100921.81
2023-01-11T19:37:27.157Z,100921.94
2023-01-11T19:39:53.542Z,100920.16
2023-01-11T19:42:20.947Z,100922.59
2023-01-11T19:44:47.376Z,100922.59
2023-01-11T19:47:16.710Z,100920.97
2023-01-11T19:49:43.512Z,100917.53
2023-01-11T19:52:18.665Z,100929.81
2023-01-11T19:54:45.628Z,100931.31
2023-01-11T19:57:14.646Z,100925.72
2023-01-11T19:59:41.746Z,100916.06
2023-01-11T20:02:11.281Z,100922.59
2023-01-11T20:04:37.644Z,100910.13
2023-01-11T20:07:04.673Z,100898.97
2023-01-11T20:09:31.206Z,100910.63
2023-01-11T20:11:58.774Z,100890.44
2023-01-11T20:14:25.659Z,100883.53
2023-01-11T20:16:52.165Z,100891.59
2023-01-11T20:19:18.675Z,100887.66
2023-01-11T20:21:45.195Z,100878.28
2023-01-11T20:24:13.819Z,100876.00
2023-01-11T20:26:41.551Z,100873.69
2023-01-11T20:29:08.617Z,100870.09
2023-01-11T20:31:35.757Z,100863.69
2023-01-11T20:34:09.861Z,100858.56
2023-01-11T20:36:36.807Z,100853.47
2023-01-11T20:39:04.711Z,100863.16
2023-01-11T20:41:49.747Z,100855.59
2023-01-11T20:44:17.494Z,100848.03
2023-01-11T20:46:47.435Z,100852.91
2023-01-11T20:49:15.074Z,100834.72
2023-01-11T20:51:42.774Z,100834.72
2023-01-11T20:54:10.235Z,100838.31
2023-01-11T20:56:38.364Z,100856.50
2023-01-11T20:59:07.158Z,100844.84
2023-01-11T21:01:33.608Z,100844.03
2023-01-11T21:04:03.019Z,100828.91
2023-01-11T21:06:31.124Z,100859.28
2023-01-11T21:08:59.863Z,100835.28
2023-01-11T21:11:26.736Z,100836.91
2023-01-11T21:16:24.503Z,100838.91
2023-01-11T21:18:59.620Z,100836.63
2023-01-11T21:21:27.025Z,100843.00
2023-01-11T21:23:58.630Z,100827.88
2023-01-11T21:26:26.694Z,100831.34
2023-01-11T21:28:55.737Z,100814.22
2023-01-11T21:31:22.719Z,100802.56
2023-01-11T21:33:49.777Z,100801.41
2023-01-11T21:36:19.541Z,100805.47
2023-01-11T21:38:46.376Z,100803.00
2023-01-11T21:41:18.559Z,100798.13
2023-01-11T21:43:45.359Z,100803.84
2023-01-11T21:46:12.834Z,100791.84
2023-01-11T21:48:39.652Z,100795.78
2023-01-11T21:51:09.874Z,100803.13
2023-01-11T21:53:36.585Z,100775.03
2023-01-11T21:56:07.812Z,100789.66
2023-01-11T21:58:35.113Z,100780.13
2023-01-11T22:01:10.062Z,100809.03
2023-01-11T22:03:36.497Z,100791.00
2023-01-11T22:06:04.293Z,100799.75
2023-01-11T22:08:34.504Z,100794.59
2023-01-11T22:11:03.432Z,100802.19
2023-01-11T22:13:31.422Z,100795.81
2023-01-11T22:16:08.335Z,100794.34
2023-01-11T22:18:35.551Z,100785.19
2023-01-11T22:21:06.407Z,100768.09
2023-01-11T22:23:32.752Z,100780.44
2023-01-11T22:26:03.965Z,100789.16
2023-01-11T22:28:30.382Z,100786.22
2023-01-11T22:31:04.260Z,100782.75
2023-01-11T22:33:30.812Z,100801.69
2023-01-11T22:35:57.181Z,100789.22
2023-01-11T22:38:23.531Z,100778.56
2023-01-11T22:40:49.922Z,100775.13
2023-01-11T22:43:16.332Z,100790.06
2023-01-11T22:45:42.757Z,100783.66
2023-01-11T22:48:09.131Z,100786.28
2023-01-11T22:50:38.311Z,100779.84
2023-01-11T22:53:04.715Z,100786.91
2023-01-11T22:55:33.109Z,100770.00
2023-01-11T22:57:59.497Z,100788.84
2023-01-11T23:00:25.924Z,100777.88
2023-01-11T23:02:52.474Z,100778.69
2023-01-11T23:05:18.914Z,100773.56
2023-01-11T23:07:45.290Z,100786.88
2023-01-11T23:10:11.627Z,100782.44
2023-01-11T23:12:56.813Z,100782.94
2023-01-11T23:15:23.141Z,100785.94
2023-01-11T23:17:49.521Z,100789.84
2023-01-11T23:20:16.205Z,100793.81
2023-01-11T23:22:42.603Z,100785.97
2023-01-11T23:25:09.525Z,100779.59
2023-01-11T23:27:35.940Z,100776.97
2023-01-11T23:30:02.279Z,100785.53
2023-01-11T23:32:28.938Z,100790.16
2023-01-11T23:34:55.276Z,100784.41
2023-01-11T23:37:21.671Z,100789.69
2023-01-11T23:39:48.034Z,100779.19
2023-01-11T23:42:26.554Z,100786.94
2023-01-11T23:44:56.968Z,100785.44
2023-01-11T23:47:25.195Z,100779.06
2023-01-11T23:49:54.488Z,100784.16
2023-01-11T23:52:23.889Z,100787.63
2023-01-11T23:54:50.946Z,100787.63
2023-01-11T23:57:18.800Z,100775.63
2023-01-11T23:59:45.871Z,100776.66
